Time;durP1;ratioP1;P1;durP2;ratioP2;P2;SDS_P1;SDS_P2;PMS_P1;PMS_P2;Temp;Humidity;BMP_temperature;BMP_pressure;BME280_temperature;BME280_humidity;BME280_pressure;Samples;Min_cycle;Max_cycle;Signal;HPM_P1;HPM_P2
2021/09/08 00:00:12;;;;;;;;;;;;;;;19.73;54.54;101766.16;5122986;27;952;-40
2021/09/08 00:02:38;;;;;;;;;;;;;;;19.69;54.09;101762.28;5118860;28;806;-49
2021/09/08 00:05:04;;;;;;;;;;;;;;;19.62;53.76;101757.00;5118462;28;703;-52
2021/09/08 00:07:30;;;;;;;;;;;;;;;19.34;54.16;101761.03;5118787;28;835;-41
2021/09/08 00:09:55;;;;;;;;;;;;;;;19.36;53.81;101763.53;5118401;27;963;-42
2021/09/08 00:12:20;;;;;;;;;;;;;;;19.28;53.88;101764.88;5118559;28;1984;-42
2021/09/08 00:14:46;;;;;;;;;;;;;;;19.21;53.91;101772.53;5118384;27;1012;-40
2021/09/08 00:17:11;;;;;;;;;;;;;;;19.22;53.87;101771.44;5118216;28;811;-51
2021/09/08 00:19:37;;;;;;;;;;;;;;;19.55;53.97;101756.44;5118069;28;831;-48
2021/09/08 00:22:04;;;;;;;;;;;;;;;19.78;54.98;101760.66;5132215;27;1624;-51
2021/09/08 00:24:30;;;;;;;;;;;;;;;20.13;55.43;101756.34;5138894;27;727;-51
2021/09/08 00:26:55;;;;;;;;;;;;;;;20.36;56.02;101765.22;5138753;27;826;-41
2021/09/08 00:29:20;;;;;;;;;;;;;;;20.58;56.30;101751.13;5129478;27;965;-40
2021/09/08 00:31:46;;;;;;;;;;;;;;;20.67;56.73;101749.47;5118198;28;1975;-40
2021/09/08 00:34:13;;;;;;;;;;;;;;;20.80;56.80;101753.63;5118089;27;807;-40
2021/09/08 00:36:39;;;;;;;;;;;;;;;20.75;57.43;101750.88;5118383;28;1625;-42
2021/09/08 00:39:04;;;;;;;;;;;;;;;21.18;56.30;101754.09;5118282;27;839;-40
2021/09/08 00:41:31;;;;;;;;;;;;;;;21.27;56.25;101748.81;5118298;27;814;-41
2021/09/08 00:44:10;;;;;;;;;;;;;;;21.45;55.68;101741.81;5117654;27;957;-46
2021/09/08 00:46:36;;;;;;;;;;;;;;;21.37;55.85;101734.91;5118323;28;795;-44
2021/09/08 00:49:04;;;;;;;;;;;;;;;21.14;55.34;101741.94;5117955;28;778;-40
2021/09/08 00:51:29;;;;;;;;;;;;;;;20.70;54.23;101727.94;5117753;28;1913;-40
2021/09/08 00:53:55;;;;;;;;;;;;;;;19.95;53.83;101726.50;5118213;28;782;-52
2021/09/08 00:56:22;;;;;;;;;;;;;;;19.65;51.95;101717.03;5116416;28;893;-51
2021/09/08 00:58:48;;;;;;;;;;;;;;;19.41;50.79;101723.00;5116848;27;1000;-53
2021/09/08 01:01:14;;;;;;;;;;;;;;;19.05;49.83;101720.06;5118105;28;786;-52
2021/09/08 01:03:40;;;;;;;;;;;;;;;19.04;49.02;101712.91;5117481;28;768;-53
2021/09/08 01:06:05;;;;;;;;;;;;;;;19.10;50.33;101722.06;5117478;28;783;-45
2021/09/08 01:08:32;;;;;;;;;;;;;;;19.44;52.90;101722.47;5117269;28;1001;-42
2021/09/08 01:11:00;;;;;;;;;;;;;;;19.74;55.07;101720.06;5117161;28;1913;-52
2021/09/08 01:13:27;;;;;;;;;;;;;;;20.12;55.49;101717.97;5117497;27;945;-40
2021/09/08 01:15:54;;;;;;;;;;;;;;;19.98;57.40;101723.22;5117727;28;767;-40
2021/09/08 01:18:19;;;;;;;;;;;;;;;20.37;57.07;101724.59;5117287;28;786;-48
2021/09/08 01:20:44;;;;;;;;;;;;;;;20.70;56.99;101714.94;5119116;27;1553;-40
2021/09/08 01:23:10;;;;;;;;;;;;;;;20.73;57.54;101719.06;5137954;27;842;-41
2021/09/08 01:25:35;;;;;;;;;;;;;;;21.01;56.73;101721.25;5137706;27;798;-44
2021/09/08 01:28:01;;;;;;;;;;;;;;;20.94;57.60;101722.63;5138078;27;770;-48
2021/09/08 01:30:26;;;;;;;;;;;;;;;21.11;56.88;101714.00;5118779;27;1008;-41
2021/09/08 01:32:52;;;;;;;;;;;;;;;21.56;55.52;101714.13;5116642;28;1917;-41
2021/09/08 01:35:20;;;;;;;;;;;;;;;21.34;56.14;101705.06;5116927;28;830;-52
2021/09/08 01:37:45;;;;;;;;;;;;;;;21.56;55.57;101692.81;5117113;28;728;-40
2021/09/08 01:40:11;;;;;;;;;;;;;;;21.17;56.40;101701.81;5116395;28;815;-40
2021/09/08 01:42:37;;;;;;;;;;;;;;;20.72;56.17;101698.06;5117103;28;798;-40
2021/09/08 01:45:02;;;;;;;;;;;;;;;20.19;55.20;101690.91;5116763;27;952;-51
2021/09/08 01:47:28;;;;;;;;;;;;;;;19.82;53.31;101694.72;5116265;28;822;-51
2021/09/08 01:49:53;;;;;;;;;;;;;;;19.62;51.69;101695.50;5116722;28;794;-42
2021/09/08 01:52:19;;;;;;;;;;;;;;;19.43;50.63;101698.75;5116713;28;1913;-42
2021/09/08 01:54:44;;;;;;;;;;;;;;;19.24;49.95;101703.09;5116983;27;772;-42
2021/09/08 01:57:10;;;;;;;;;;;;;;;19.13;50.75;101710.47;5116703;28;806;-41
2021/09/08 01:59:35;;;;;;;;;;;;;;;19.15;52.26;101703.59;5115664;27;1005;-42
2021/09/08 02:02:01;;;;;;;;;;;;;;;19.44;53.93;101705.91;5116625;28;743;-41
2021/09/08 02:04:26;;;;;;;;;;;;;;;19.80;55.44;101702.47;5115833;28;762;-42
2021/09/08 02:06:52;;;;;;;;;;;;;;;20.17;56.15;101705.00;5116769;28;787;-43
2021/09/08 02:09:17;;;;;;;;;;;;;;;20.13;57.57;101698.38;5115628;28;1066;-47
2021/09/08 02:11:43;;;;;;;;;;;;;;;20.44;57.33;101703.88;5115731;28;1905;-42
2021/09/08 02:14:11;;;;;;;;;;;;;;;20.65;57.36;101692.78;5116451;27;1016;-43
2021/09/08 02:16:36;;;;;;;;;;;;;;;20.80;57.26;101689.22;5116619;28;775;-42
2021/09/08 02:19:02;;;;;;;;;;;;;;;20.99;57.04;101686.69;5116257;28;870;-44
2021/09/08 02:21:27;;;;;;;;;;;;;;;21.19;56.70;101680.22;5124339;27;1592;-41
2021/09/08 02:23:53;;;;;;;;;;;;;;;21.30;56.25;101683.78;5136885;27;790;-53
2021/09/08 02:26:18;;;;;;;;;;;;;;;21.41;56.05;101684.56;5136268;27;515;-48
2021/09/08 02:28:44;;;;;;;;;;;;;;;21.28;56.21;101686.84;5132334;27;956;-42
2021/09/08 02:31:09;;;;;;;;;;;;;;;21.43;55.94;101685.91;5116395;28;1968;-43
2021/09/08 02:33:35;;;;;;;;;;;;;;;20.88;55.83;101682.28;5116019;28;881;-50
2021/09/08 02:36:00;;;;;;;;;;;;;;;20.13;54.09;101668.00;5115871;28;811;-41
2021/09/08 02:38:27;;;;;;;;;;;;;;;19.62;51.56;101677.00;5116307;28;827;-41
2021/09/08 02:40:53;;;;;;;;;;;;;;;19.29;49.28;101681.88;5115787;28;870;-42
2021/09/08 02:43:18;;;;;;;;;;;;;;;18.94;48.16;101675.09;5116064;27;1000;-52
2021/09/08 02:45:43;;;;;;;;;;;;;;;18.72;49.49;101674.38;5115987;27;933;-41
2021/09/08 02:48:09;;;;;;;;;;;;;;;19.20;52.51;101677.97;5115819;28;786;-51
2021/09/08 02:50:34;;;;;;;;;;;;;;;19.52;54.38;101674.22;5115556;28;803;-42
2021/09/08 02:53:00;;;;;;;;;;;;;;;19.85;55.63;101679.56;5116258;28;1918;-52
2021/09/08 02:55:25;;;;;;;;;;;;;;;20.00;56.98;101674.06;5115604;28;515;-42
2021/09/08 02:57:50;;;;;;;;;;;;;;;20.29;57.60;101670.75;5116149;28;759;-49
2021/09/08 03:00:16;;;;;;;;;;;;;;;20.63;57.18;101670.16;5115911;27;992;-41
2021/09/08 03:02:42;;;;;;;;;;;;;;;20.48;58.19;101671.84;5115492;28;847;-48
2021/09/08 03:05:07;;;;;;;;;;;;;;;20.93;57.49;101679.50;5115639;28;803;-51
2021/09/08 03:07:33;;;;;;;;;;;;;;;21.15;56.95;101665.31;5115882;28;780;-49
2021/09/08 03:09:58;;;;;;;;;;;;;;;21.09;57.20;101681.09;5115436;28;1161;-51
2021/09/08 03:12:24;;;;;;;;;;;;;;;21.29;56.49;101673.81;5115563;28;1913;-54
2021/09/08 03:14:49;;;;;;;;;;;;;;;21.58;55.75;101673.16;5115522;27;950;-43
2021/09/08 03:17:15;;;;;;;;;;;;;;;21.45;55.89;101678.19;5115432;28;815;-52
2021/09/08 03:19:41;;;;;;;;;;;;;;;21.64;55.46;101672.00;5116047;28;830;-43
2021/09/08 03:22:06;;;;;;;;;;;;;;;21.55;55.70;101669.03;5132684;27;1569;-48
2021/09/08 03:24:31;;;;;;;;;;;;;;;21.05;55.62;101671.72;5139869;27;771;-44
2021/09/08 03:26:57;;;;;;;;;;;;;;;20.21;54.57;101671.31;5140186;27;763;-53
2021/09/08 03:29:22;;;;;;;;;;;;;;;19.68;52.66;101669.56;5130350;27;944;-45
2021/09/08 03:31:48;;;;;;;;;;;;;;;19.30;49.91;101671.66;5119162;28;1909;-46
2021/09/08 03:34:13;;;;;;;;;;;;;;;18.86;48.52;101666.47;5119879;28;822;-46
2021/09/08 03:36:39;;;;;;;;;;;;;;;18.80;47.92;101669.22;5119487;28;798;-47
2021/09/08 03:39:04;;;;;;;;;;;;;;;18.94;49.67;101668.75;5117800;28;775;-44
2021/09/08 03:41:30;;;;;;;;;;;;;;;19.18;53.04;101671.06;5119275;28;842;-49
2021/09/08 03:43:55;;;;;;;;;;;;;;;19.74;54.30;101676.75;5123068;27;1164;-44
2021/09/08 03:46:21;;;;;;;;;;;;;;;20.09;55.35;101688.13;5139150;27;818;-54
2021/09/08 03:48:46;;;;;;;;;;;;;;;20.35;56.38;101680.69;5139905;27;746;-48
2021/09/08 03:51:12;;;;;;;;;;;;;;;20.68;56.42;101684.00;5139918;27;1983;-52
2021/09/08 03:53:37;;;;;;;;;;;;;;;20.68;57.34;101684.00;5139325;27;782;-47
2021/09/08 03:56:03;;;;;;;;;;;;;;;20.63;58.10;101678.44;5139482;27;775;-45
2021/09/08 03:58:28;;;;;;;;;;;;;;;20.74;58.33;101682.06;5137427;27;969;-57
2021/09/08 04:00:54;;;;;;;;;;;;;;;20.99;57.63;101683.91;5118388;28;858;-46
2021/09/08 04:03:19;;;;;;;;;;;;;;;21.31;56.78;101685.44;5118902;28;743;-58
2021/09/08 04:05:44;;;;;;;;;;;;;;;21.34;56.83;101674.63;5118546;28;751;-56
2021/09/08 04:08:10;;;;;;;;;;;;;;;21.73;55.63;101680.53;5118682;27;818;-61
2021/09/08 04:10:35;;;;;;;;;;;;;;;21.92;54.59;101683.44;5118770;28;1026;-42
2021/09/08 04:13:01;;;;;;;;;;;;;;;21.57;55.63;101688.09;5118442;28;1967;-55
2021/09/08 04:15:26;;;;;;;;;;;;;;;21.33;55.66;101672.97;5117688;27;986;-43
2021/09/08 04:17:52;;;;;;;;;;;;;;;20.63;54.77;101676.50;5139184;27;747;-46
2021/09/08 04:20:17;;;;;;;;;;;;;;;19.71;53.45;101668.19;5135647;27;1242;-54
2021/09/08 04:22:43;;;;;;;;;;;;;;;19.17;51.36;101677.66;5132133;27;1255;-44
2021/09/08 04:25:08;;;;;;;;;;;;;;;18.93;49.42;101667.13;5139389;27;818;-42
2021/09/08 04:27:34;;;;;;;;;;;;;;;18.68;49.23;101674.09;5138891;27;905;-43
2021/09/08 04:29:59;;;;;;;;;;;;;;;19.09;52.24;101687.28;5123816;27;957;-61
2021/09/08 04:32:25;;;;;;;;;;;;;;;19.54;54.23;101687.75;5117150;28;1902;-42
2021/09/08 04:34:50;;;;;;;;;;;;;;;19.86;55.75;101681.22;5117907;28;863;-64
2021/09/08 04:37:16;;;;;;;;;;;;;;;20.33;56.07;101682.91;5118251;28;763;-42
2021/09/08 04:39:43;;;;;;;;;;;;;;;20.26;57.41;101682.34;5118144;28;790;-60
2021/09/08 04:42:09;;;;;;;;;;;;;;;20.69;56.96;101680.09;5118089;28;819;-54
2021/09/08 04:44:34;;;;;;;;;;;;;;;20.54;58.24;101678.19;5117710;27;969;-42
2021/09/08 04:47:00;;;;;;;;;;;;;;;20.90;57.40;101689.19;5117494;28;743;-43
2021/09/08 04:49:25;;;;;;;;;;;;;;;21.18;56.73;101686.88;5118021;28;767;-53
2021/09/08 04:51:50;;;;;;;;;;;;;;;21.40;56.23;101694.78;5117941;28;1905;-55
2021/09/08 04:54:16;;;;;;;;;;;;;;;21.45;55.94;101692.00;5117351;27;815;-46
2021/09/08 04:56:41;;;;;;;;;;;;;;;21.41;56.16;101693.69;5117891;28;819;-53
2021/09/08 04:59:07;;;;;;;;;;;;;;;21.46;56.04;101699.22;5123560;27;1009;-47
2021/09/08 05:01:33;;;;;;;;;;;;;;;21.47;55.79;101694.50;5138098;27;890;-57
2021/09/08 05:03:58;;;;;;;;;;;;;;;21.16;56.08;101695.44;5138523;27;755;-40
2021/09/08 05:06:23;;;;;;;;;;;;;;;20.36;54.93;101687.88;5138225;27;759;-41
2021/09/08 05:08:49;;;;;;;;;;;;;;;19.66;52.67;101691.09;5136522;27;1029;-54
2021/09/08 05:11:15;;;;;;;;;;;;;;;19.23;50.42;101693.16;5138073;27;1926;-41
2021/09/08 05:13:40;;;;;;;;;;;;;;;18.83;48.66;101694.56;5133628;27;936;-39
2021/09/08 05:16:06;;;;;;;;;;;;;;;18.73;48.16;101701.69;5117016;28;826;-55
2021/09/08 05:18:32;;;;;;;;;;;;;;;19.13;51.81;101697.50;5117452;28;763;-40
2021/09/08 05:20:57;;;;;;;;;;;;;;;19.48;53.80;101696.00;5121287;27;1624;-47
2021/09/08 05:23:23;;;;;;;;;;;;;;;19.81;55.40;101699.44;5137535;27;783;-49
2021/09/08 05:25:48;;;;;;;;;;;;;;;20.02;56.54;101705.00;5135974;27;960;-41
2021/09/08 05:28:14;;;;;;;;;;;;;;;20.47;56.52;101697.81;5137645;27;1015;-43
2021/09/08 05:30:39;;;;;;;;;;;;;;;20.42;57.70;101703.31;5136042;27;932;-41
2021/09/08 05:33:05;;;;;;;;;;;;;;;20.74;57.27;101702.22;5137536;27;1984;-48
2021/09/08 05:35:30;;;;;;;;;;;;;;;20.96;57.10;101710.19;5137495;27;842;-53
2021/09/08 05:37:56;;;;;;;;;;;;;;;21.20;56.80;101704.84;5128324;27;1168;-50
2021/09/08 05:40:21;;;;;;;;;;;;;;;21.26;56.79;101699.28;5127540;27;1188;-53
2021/09/08 05:42:47;;;;;;;;;;;;;;;21.29;56.78;101702.31;5129611;27;1172;-41
2021/09/08 05:45:12;;;;;;;;;;;;;;;21.46;56.30;101704.75;5126660;27;1243;-41
2021/09/08 05:47:38;;;;;;;;;;;;;;;21.67;55.54;101705.50;5126471;27;1196;-45
2021/09/08 05:50:04;;;;;;;;;;;;;;;21.51;56.20;101699.16;5122407;27;1179;-49
2021/09/08 05:52:29;;;;;;;;;;;;;;;21.55;55.92;101706.94;5136841;27;1909;-54
2021/09/08 05:54:55;;;;;;;;;;;;;;;21.06;55.31;101709.31;5137366;27;758;-42
2021/09/08 05:57:20;;;;;;;;;;;;;;;20.13;54.04;101692.00;5129522;27;1275;-52
2021/09/08 05:59:45;;;;;;;;;;;;;;;19.54;51.52;101696.03;5125110;27;1227;-42
2021/09/08 06:02:11;;;;;;;;;;;;;;;19.11;49.41;101708.00;5127457;27;1497;-40
2021/09/08 06:04:36;;;;;;;;;;;;;;;18.60;48.59;101702.13;5130189;27;1275;-42
2021/09/08 06:07:02;;;;;;;;;;;;;;;18.30;48.09;101703.56;5125934;27;1180;-51
2021/09/08 06:09:27;;;;;;;;;;;;;;;18.68;50.33;101704.41;5127141;27;1180;-41
2021/09/08 06:11:56;;;;;;;;;;;;;;;19.41;52.61;101700.94;5123884;27;1921;-52
2021/09/08 06:14:23;;;;;;;;;;;;;;;19.64;54.68;101702.41;5126096;27;1192;-56
2021/09/08 06:16:49;;;;;;;;;;;;;;;20.02;55.62;101699.47;5118936;27;1168;-56
2021/09/08 06:19:14;;;;;;;;;;;;;;;20.44;55.79;101695.59;5115442;28;834;-47
2021/09/08 06:21:40;;;;;;;;;;;;;;;20.47;56.74;101706.09;5125008;27;1574;-55
2021/09/08 06:24:05;;;;;;;;;;;;;;;20.58;57.23;101706.06;5136916;27;815;-42
2021/09/08 06:26:31;;;;;;;;;;;;;;;20.73;57.44;101703.31;5137049;27;680;-55
2021/09/08 06:28:56;;;;;;;;;;;;;;;20.98;57.10;101707.94;5130583;27;960;-41
2021/09/08 06:31:22;;;;;;;;;;;;;;;21.27;56.66;101706.50;5116222;28;1902;-60
2021/09/08 06:33:48;;;;;;;;;;;;;;;21.31;56.65;101707.59;5116468;28;811;-42
2021/09/08 06:36:13;;;;;;;;;;;;;;;21.16;57.30;101709.28;5115799;28;826;-59
2021/09/08 06:38:39;;;;;;;;;;;;;;;21.20;57.37;101709.56;5114950;28;898;-41
2021/09/08 06:41:04;;;;;;;;;;;;;;;21.30;56.80;101711.44;5116357;28;846;-57
2021/09/08 06:43:30;;;;;;;;;;;;;;;20.80;57.81;101714.94;5115480;27;929;-66
2021/09/08 06:45:55;;;;;;;;;;;;;;;20.11;56.56;101708.03;5116356;28;850;-61
2021/09/08 06:48:21;;;;;;;;;;;;;;;19.57;54.28;101707.34;5116259;28;776;-44
2021/09/08 06:50:46;;;;;;;;;;;;;;;19.21;51.48;101709.13;5116187;28;799;-49
2021/09/08 06:53:12;;;;;;;;;;;;;;;18.74;49.73;101708.84;5116531;28;1917;-60
2021/09/08 06:55:37;;;;;;;;;;;;;;;18.46;49.17;101702.56;5116389;28;834;-43
2021/09/08 06:58:03;;;;;;;;;;;;;;;18.76;51.87;101711.31;5119054;28;879;-58
2021/09/08 07:00:28;;;;;;;;;;;;;;;19.22;54.49;101708.03;5119780;27;972;-58
2021/09/08 07:02:54;;;;;;;;;;;;;;;19.38;56.51;101712.53;5120163;28;830;-42
2021/09/08 07:05:21;;;;;;;;;;;;;;;19.85;56.98;101707.97;5120137;28;768;-41
2021/09/08 07:07:47;;;;;;;;;;;;;;;19.81;58.38;101704.94;5119979;28;799;-41
2021/09/08 07:10:12;;;;;;;;;;;;;;;20.14;58.32;101708.28;5120024;28;1109;-43
2021/09/08 07:12:38;;;;;;;;;;;;;;;20.30;58.48;101694.47;5120496;28;1980;-44
2021/09/08 07:15:03;;;;;;;;;;;;;;;20.40;58.74;101701.94;5119276;27;961;-46
2021/09/08 07:17:29;;;;;;;;;;;;;;;20.40;59.15;101705.53;5120097;28;778;-43
2021/09/08 07:19:54;;;;;;;;;;;;;;;20.79;58.21;101704.97;5120047;28;778;-47
2021/09/08 07:22:20;;;;;;;;;;;;;;;20.92;58.13;101711.03;5135460;27;1655;-42
2021/09/08 07:24:45;;;;;;;;;;;;;;;20.83;58.39;101708.00;5124374;27;1236;-45
2021/09/08 07:27:11;;;;;;;;;;;;;;;20.47;57.58;101710.81;5128040;27;1196;-43
2021/09/08 07:29:36;;;;;;;;;;;;;;;20.02;56.16;101716.03;5118972;27;956;-45
2021/09/08 07:32:02;;;;;;;;;;;;;;;19.48;54.92;101717.25;5124253;27;1988;-58
2021/09/08 07:34:28;;;;;;;;;;;;;;;19.39;52.69;101719.69;5129428;27;1223;-59
2021/09/08 07:36:54;;;;;;;;;;;;;;;18.98;51.96;101716.72;5119287;28;854;-56
2021/09/08 07:39:19;;;;;;;;;;;;;;;18.96;51.90;101710.66;5119513;28;755;-51
2021/09/08 07:41:45;;;;;;;;;;;;;;;19.22;53.39;101717.13;5119585;28;754;-57
2021/09/08 07:44:10;;;;;;;;;;;;;;;19.44;55.16;101722.47;5119148;27;996;-45
2021/09/08 07:46:35;;;;;;;;;;;;;;;19.69;56.75;101711.78;5118984;28;798;-52
2021/09/08 07:49:02;;;;;;;;;;;;;;;19.81;58.24;101721.50;5119599;28;807;-52
2021/09/08 07:51:27;;;;;;;;;;;;;;;20.25;58.07;101724.88;5118910;28;1969;-42
2021/09/08 07:53:53;;;;;;;;;;;;;;;20.21;58.93;101721.00;5119465;28;807;-41
2021/09/08 07:56:19;;;;;;;;;;;;;;;20.36;58.89;101718.25;5119144;28;767;-43
2021/09/08 07:58:45;;;;;;;;;;;;;;;20.67;58.44;101723.75;5118453;27;957;-41
2021/09/08 08:01:11;;;;;;;;;;;;;;;20.80;58.25;101722.38;5123805;27;1212;-43
2021/09/08 08:03:37;;;;;;;;;;;;;;;20.60;59.26;101725.97;5119198;27;755;-45
2021/09/08 08:06:03;;;;;;;;;;;;;;;20.73;58.49;101724.59;5121070;27;1074;-50
2021/09/08 08:08:29;;;;;;;;;;;;;;;20.61;57.97;101733.16;5124059;28;1243;-42
2021/09/08 08:10:55;;;;;;;;;;;;;;;20.02;55.90;101721.56;5119231;28;1180;-44
2021/09/08 08:13:20;;;;;;;;;;;;;;;19.38;54.11;101729.06;5118022;27;1905;-50
2021/09/08 08:15:46;;;;;;;;;;;;;;;18.97;51.68;101731.59;5118429;27;1008;-43
2021/09/08 08:18:11;;;;;;;;;;;;;;;18.53;50.03;101716.13;5119018;28;866;-56
2021/09/08 08:20:37;;;;;;;;;;;;;;;18.22;49.64;101726.91;5118131;27;1628;-41
2021/09/08 08:23:02;;;;;;;;;;;;;;;18.83;53.24;101734.00;5138017;27;756;-44
2021/09/08 08:25:28;;;;;;;;;;;;;;;19.31;55.33;101725.72;5138853;27;814;-53
2021/09/08 08:27:54;;;;;;;;;;;;;;;19.65;56.56;101717.84;5138960;27;787;-50
2021/09/08 08:30:20;;;;;;;;;;;;;;;19.84;57.68;101725.66;5121286;27;1004;-52
2021/09/08 08:32:46;;;;;;;;;;;;;;;20.00;58.46;101723.75;5118908;28;1972;-43
2021/09/08 08:35:11;;;;;;;;;;;;;;;20.17;58.79;101724.34;5118345;28;830;-41
2021/09/08 08:37:36;;;;;;;;;;;;;;;20.33;59.06;101727.09;5118576;28;759;-42
2021/09/08 08:40:03;;;;;;;;;;;;;;;20.52;58.72;101719.06;5118182;28;743;-56
2021/09/08 08:42:30;;;;;;;;;;;;;;;20.70;58.76;101719.66;5118139;27;862;-56
2021/09/08 08:44:56;;;;;;;;;;;;;;;20.73;59.24;101717.13;5118231;27;1073;-43
2021/09/08 08:47:21;;;;;;;;;;;;;;;20.84;59.12;101723.47;5117086;28;884;-42
2021/09/08 08:49:47;;;;;;;;;;;;;;;21.03;58.75;101720.94;5134501;27;1231;-42
2021/09/08 08:52:12;;;;;;;;;;;;;;;20.84;59.07;101716.00;5138619;27;2001;-48
2021/09/08 08:54:38;;;;;;;;;;;;;;;20.52;57.69;101717.16;5138471;27;770;-50
2021/09/08 08:57:05;;;;;;;;;;;;;;;20.05;56.35;101709.97;5138353;27;782;-53
2021/09/08 08:59:30;;;;;;;;;;;;;;;19.67;54.65;101709.31;5137150;27;1249;-50
2021/09/08 09:01:57;;;;;;;;;;;;;;;19.36;52.86;101702.84;5138491;27;771;-40
2021/09/08 09:04:23;;;;;;;;;;;;;;;19.09;52.03;101703.84;5136983;27;771;-42
2021/09/08 09:06:49;;;;;;;;;;;;;;;18.95;50.78;101707.06;5138272;27;831;-46
2021/09/08 09:09:15;;;;;;;;;;;;;;;18.66;50.50;101711.25;5138217;27;1165;-41
2021/09/08 09:11:41;;;;;;;;;;;;;;;18.73;50.76;101709.94;5138290;27;1909;-49
2021/09/08 09:14:07;;;;;;;;;;;;;;;18.77;51.93;101713.00;5130873;27;1004;-44
2021/09/08 09:16:35;;;;;;;;;;;;;;;19.01;52.78;101707.91;5117655;28;782;-49
2021/09/08 09:19:00;;;;;;;;;;;;;;;19.27;54.02;101699.78;5117056;28;767;-41
2021/09/08 09:21:26;;;;;;;;;;;;;;;19.51;55.83;101710.38;5126054;27;1636;-51
2021/09/08 09:23:55;;;;;;;;;;;;;;;19.62;57.30;101707.34;5138005;27;782;-51
2021/09/08 09:26:24;;;;;;;;;;;;;;;19.71;58.31;101710.41;5138046;27;795;-46
2021/09/08 09:28:50;;;;;;;;;;;;;;;19.90;58.84;101707.19;5132644;27;968;-47
2021/09/08 09:31:20;;;;;;;;;;;;;;;20.04;59.29;101713.00;5117160;28;1905;-48
2021/09/08 09:33:46;;;;;;;;;;;;;;;20.12;59.52;101698.66;5117211;28;762;-48
2021/09/08 09:36:14;;;;;;;;;;;;;;;20.20;59.66;101691.72;5117254;28;750;-50
2021/09/08 09:38:40;;;;;;;;;;;;;;;20.42;59.43;101697.78;5117129;28;770;-48
2021/09/08 09:41:06;;;;;;;;;;;;;;;20.55;59.36;101704.69;5117102;28;869;-52
2021/09/08 09:43:31;;;;;;;;;;;;;;;20.65;59.43;101696.41;5116373;27;925;-48
2021/09/08 09:45:57;;;;;;;;;;;;;;;20.75;59.08;101692.81;5117024;28;786;-44
2021/09/08 09:48:22;;;;;;;;;;;;;;;20.81;58.82;101688.94;5116742;28;767;-50
2021/09/08 09:50:48;;;;;;;;;;;;;;;20.54;58.84;101682.88;5115752;28;1253;-44
2021/09/08 09:53:17;;;;;;;;;;;;;;;20.40;58.23;101677.06;5117098;28;1978;-50
2021/09/08 09:55:43;;;;;;;;;;;;;;;20.06;57.92;101681.22;5116657;28;767;-53
2021/09/08 09:58:08;;;;;;;;;;;;;;;19.86;56.97;101679.28;5127044;27;1161;-56
2021/09/08 10:00:34;;;;;;;;;;;;;;;19.80;55.79;101675.69;5125307;27;1275;-56
2021/09/08 10:02:59;;;;;;;;;;;;;;;19.63;55.23;101675.09;5127506;27;1259;-48
2021/09/08 10:05:25;;;;;;;;;;;;;;;19.75;54.39;101674.81;5126213;27;1175;-52
2021/09/08 10:07:50;;;;;;;;;;;;;;;19.52;54.52;101671.47;5125700;27;1183;-51
2021/09/08 10:10:27;;;;;;;;;;;;;;;19.46;54.37;101673.38;5117929;27;1342;-44
2021/09/08 10:13:03;;;;;;;;;;;;;;;19.36;54.17;101670.56;5115222;28;1982;-53
2021/09/08 10:15:29;;;;;;;;;;;;;;;19.41;53.88;101670.59;5133799;27;992;-47
2021/09/08 10:17:55;;;;;;;;;;;;;;;19.38;53.80;101657.34;5136645;27;814;-51
2021/09/08 10:20:21;;;;;;;;;;;;;;;19.10;54.29;101666.91;5135829;27;1182;-51
2021/09/08 10:22:47;;;;;;;;;;;;;;;19.16;53.83;101660.31;5137029;27;1573;-45
2021/09/08 10:25:17;;;;;;;;;;;;;;;19.28;54.51;101657.34;5136856;27;767;-44
2021/09/08 10:27:42;;;;;;;;;;;;;;;19.49;55.78;101659.03;5136852;27;803;-47
2021/09/08 10:30:08;;;;;;;;;;;;;;;19.74;56.65;101660.22;5120223;27;1054;-50
2021/09/08 10:32:35;;;;;;;;;;;;;;;19.97;57.37;101644.25;5116561;28;1918;-46
2021/09/08 10:35:08;;;;;;;;;;;;;;;20.03;58.24;101659.69;5115864;28;771;-46
2021/09/08 10:37:34;;;;;;;;;;;;;;;20.25;58.44;101655.84;5116230;28;886;-52
2021/09/08 10:39:59;;;;;;;;;;;;;;;20.40;58.39;101652.22;5115309;28;818;-44
2021/09/08 10:42:43;;;;;;;;;;;;;;;20.60;58.24;101646.66;5123426;28;1101;-45
2021/09/08 10:45:18;;;;;;;;;;;;;;;20.41;59.29;101657.50;5120442;27;996;-53
2021/09/08 10:47:44;;;;;;;;;;;;;;;20.71;58.75;101644.75;5115639;28;839;-41
2021/09/08 10:50:10;;;;;;;;;;;;;;;20.63;59.11;101651.63;5116439;28;807;-46
2021/09/08 10:52:38;;;;;;;;;;;;;;;20.71;58.49;101639.22;5115217;28;1925;-52
2021/09/08 10:55:09;;;;;;;;;;;;;;;20.16;57.20;101645.34;5115971;28;818;-49
2021/09/08 10:57:41;;;;;;;;;;;;;;;19.78;54.13;101647.53;5116164;28;847;-44
2021/09/08 11:00:07;;;;;;;;;;;;;;;19.34;51.61;101627.84;5115553;27;906;-47
2021/09/08 11:02:37;;;;;;;;;;;;;;;18.89;49.71;101643.94;5115994;28;786;-48
2021/09/08 11:05:03;;;;;;;;;;;;;;;18.67;48.90;101646.81;5116045;28;885;-51
2021/09/08 11:07:28;;;;;;;;;;;;;;;18.84;49.87;101652.16;5116124;28;810;-55
2021/09/08 11:09:54;;;;;;;;;;;;;;;19.06;52.77;101649.25;5115586;28;1022;-47
2021/09/08 11:12:19;;;;;;;;;;;;;;;19.45;55.19;101638.63;5116025;28;1965;-42
2021/09/08 11:14:45;;;;;;;;;;;;;;;19.60;57.38;101648.03;5115608;27;992;-42
2021/09/08 11:17:19;;;;;;;;;;;;;;;19.83;58.14;101647.53;5115775;28;803;-54
2021/09/08 11:19:49;;;;;;;;;;;;;;;20.02;58.82;101637.88;5115642;28;782;-51
2021/09/08 11:22:17;;;;;;;;;;;;;;;20.18;59.13;101642.31;5131025;28;1656;-41
2021/09/08 11:24:43;;;;;;;;;;;;;;;20.28;59.58;101638.72;5136239;27;826;-59
2021/09/08 11:27:08;;;;;;;;;;;;;;;20.57;59.13;101643.66;5136346;27;936;-50
2021/09/08 11:29:34;;;;;;;;;;;;;;;20.61;59.59;101644.75;5124778;27;956;-44
2021/09/08 11:31:59;;;;;;;;;;;;;;;20.83;59.01;101636.13;5115832;28;1914;-50
2021/09/08 11:34:25;;;;;;;;;;;;;;;20.78;59.25;101628.69;5115938;28;831;-52
2021/09/08 11:36:51;;;;;;;;;;;;;;;20.37;58.26;101628.75;5116019;28;775;-40
2021/09/08 11:39:17;;;;;;;;;;;;;;;20.03;56.47;101623.81;5115344;28;851;-45
2021/09/08 11:42:04;;;;;;;;;;;;;;;19.69;54.74;101623.50;5116269;28;775;-53
2021/09/08 11:44:30;;;;;;;;;;;;;;;19.32;52.91;101626.19;5119094;27;1033;-51
2021/09/08 11:46:56;;;;;;;;;;;;;;;19.07;51.83;101624.16;5119386;28;878;-41
2021/09/08 11:49:21;;;;;;;;;;;;;;;18.99;50.17;101627.44;5119048;27;874;-48
2021/09/08 11:51:47;;;;;;;;;;;;;;;18.63;50.21;101618.97;5119072;28;1909;-45
2021/09/08 11:54:15;;;;;;;;;;;;;;;18.89;50.72;101616.38;5119195;28;779;-52
2021/09/08 11:56:41;;;;;;;;;;;;;;;19.14;54.26;101608.19;5119460;28;811;-51
2021/09/08 11:59:06;;;;;;;;;;;;;;;19.56;56.41;101617.41;5118810;27;921;-53
2021/09/08 12:01:33;;;;;;;;;;;;;;;19.80;58.05;101611.41;5119064;27;854;-43
2021/09/08 12:03:59;;;;;;;;;;;;;;;20.16;58.31;101606.69;5117655;28;954;-48
2021/09/08 12:06:25;;;;;;;;;;;;;;;20.37;58.73;101617.72;5118877;28;814;-53
2021/09/08 12:08:51;;;;;;;;;;;;;;;20.43;59.05;101613.81;5118969;28;976;-41
2021/09/08 12:11:32;;;;;;;;;;;;;;;20.43;59.64;101615.78;5117505;28;1976;-42
2021/09/08 12:14:13;;;;;;;;;;;;;;;20.41;60.36;101616.06;5118771;27;941;-46
2021/09/08 12:16:39;;;;;;;;;;;;;;;20.76;59.58;101594.97;5119226;28;808;-49
2021/09/08 12:19:14;;;;;;;;;;;;;;;20.76;59.49;101602.44;5119055;28;775;-49
2021/09/08 12:21:39;;;;;;;;;;;;;;;20.44;58.56;101604.44;5128381;27;1589;-51
2021/09/08 12:24:24;;;;;;;;;;;;;;;19.82;56.52;101601.75;5139111;27;802;-53
2021/09/08 12:26:59;;;;;;;;;;;;;;;19.45;53.43;101602.75;5139622;27;755;-52
2021/09/08 12:29:24;;;;;;;;;;;;;;;19.06;50.77;101594.94;5128926;27;956;-54
2021/09/08 12:31:53;;;;;;;;;;;;;;;18.78;49.63;101590.66;5117933;28;1972;-54
2021/09/08 12:34:19;;;;;;;;;;;;;;;18.49;49.79;101588.31;5118569;28;830;-57
2021/09/08 12:36:45;;;;;;;;;;;;;;;18.89;52.57;101588.81;5118437;28;787;-51
2021/09/08 12:39:15;;;;;;;;;;;;;;;19.26;55.75;101594.16;5118325;28;881;-50
2021/09/08 12:41:59;;;;;;;;;;;;;;;19.48;57.71;101593.94;5118197;28;779;-48
2021/09/08 12:44:25;;;;;;;;;;;;;;;19.89;58.26;101592.34;5117668;27;921;-56
2021/09/08 12:46:51;;;;;;;;;;;;;;;19.99;59.03;101587.66;5118147;28;827;-42